sensor_id;sensor_type;location;lat;lon;timestamp;P1;durP1;ratioP1;P2;durP2;ratioP2
8819;SDS011;4446;50.876;4.736;2023-06-14T00:00:30;5.35;;;4.85;;
8819;SDS011;4446;50.876;4.736;2023-06-14T00:02:59;5.68;;;4.85;;
8819;SDS011;4446;50.876;4.736;2023-06-14T00:05:26;5.32;;;4.72;;
8819;SDS011;4446;50.876;4.736;2023-06-14T00:07:54;6.22;;;4.70;;
8819;SDS011;4446;50.876;4.736;2023-06-14T00:10:21;5.07;;;4.53;;
8819;SDS011;4446;50.876;4.736;2023-06-14T00:12:50;5.68;;;5.15;;
8819;SDS011;4446;50.876;4.736;2023-06-14T00:15:16;5.63;;;5.05;;
8819;SDS011;4446;50.876;4.736;2023-06-14T00:17:43;5.57;;;5.03;;
8819;SDS011;4446;50.876;4.736;2023-06-14T00:20:12;5.68;;;5.07;;
8819;SDS011;4446;50.876;4.736;2023-06-14T00:22:39;6.72;;;4.85;;
8819;SDS011;4446;50.876;4.736;2023-06-14T00:25:06;5.63;;;4.93;;
8819;SDS011;4446;50.876;4.736;2023-06-14T00:27:33;7.10;;;4.95;;
8819;SDS011;4446;50.876;4.736;2023-06-14T00:30:02;6.43;;;5.40;;
8819;SDS011;4446;50.876;4.736;2023-06-14T00:32:29;5.63;;;5.03;;
8819;SDS011;4446;50.876;4.736;2023-06-14T00:34:56;5.72;;;4.80;;
8819;SDS011;4446;50.876;4.736;2023-06-14T00:37:23;5.13;;;4.63;;
8819;SDS011;4446;50.876;4.736;2023-06-14T00:39:50;5.20;;;4.57;;
8819;SDS011;4446;50.876;4.736;2023-06-14T00:42:23;5.43;;;4.75;;
8819;SDS011;4446;50.876;4.736;2023-06-14T00:44:51;6.05;;;5.07;;
8819;SDS011;4446;50.876;4.736;2023-06-14T00:47:20;5.80;;;5.20;;
8819;SDS011;4446;50.876;4.736;2023-06-14T00:49:47;5.80;;;5.20;;
8819;SDS011;4446;50.876;4.736;2023-06-14T00:52:16;5.75;;;4.95;;
8819;SDS011;4446;50.876;4.736;2023-06-14T00:54:43;5.00;;;4.50;;
8819;SDS011;4446;50.876;4.736;2023-06-14T00:57:10;5.68;;;4.82;;
8819;SDS011;4446;50.876;4.736;2023-06-14T00:59:45;6.32;;;4.60;;
8819;SDS011;4446;50.876;4.736;2023-06-14T01:02:14;5.55;;;5.05;;
8819;SDS011;4446;50.876;4.736;2023-06-14T01:04:45;5.50;;;4.88;;
8819;SDS011;4446;50.876;4.736;2023-06-14T01:07:15;5.57;;;4.78;;
8819;SDS011;4446;50.876;4.736;2023-06-14T01:09:55;5.45;;;4.70;;
8819;SDS011;4446;50.876;4.736;2023-06-14T01:12:31;4.85;;;4.35;;
8819;SDS011;4446;50.876;4.736;2023-06-14T01:15:03;5.05;;;4.53;;
8819;SDS011;4446;50.876;4.736;2023-06-14T01:17:31;4.50;;;4.10;;
8819;SDS011;4446;50.876;4.736;2023-06-14T01:20:00;5.20;;;4.70;;
8819;SDS011;4446;50.876;4.736;2023-06-14T01:22:28;4.93;;;4.45;;
8819;SDS011;4446;50.876;4.736;2023-06-14T01:24:57;5.15;;;4.65;;
8819;SDS011;4446;50.876;4.736;2023-06-14T01:27:24;5.50;;;4.95;;
8819;SDS011;4446;50.876;4.736;2023-06-14T01:29:54;5.35;;;4.63;;
8819;SDS011;4446;50.876;4.736;2023-06-14T01:32:23;5.47;;;4.68;;
8819;SDS011;4446;50.876;4.736;2023-06-14T01:34:50;5.47;;;4.82;;
8819;SDS011;4446;50.876;4.736;2023-06-14T01:37:18;5.30;;;4.80;;
8819;SDS011;4446;50.876;4.736;2023-06-14T01:39:47;6.53;;;5.28;;
8819;SDS011;4446;50.876;4.736;2023-06-14T01:42:17;7.60;;;5.07;;
8819;SDS011;4446;50.876;4.736;2023-06-14T01:44:44;5.25;;;4.75;;
8819;SDS011;4446;50.876;4.736;2023-06-14T01:47:13;6.43;;;5.15;;
8819;SDS011;4446;50.876;4.736;2023-06-14T01:49:41;6.75;;;5.15;;
8819;SDS011;4446;50.876;4.736;2023-06-14T01:52:08;5.55;;;5.03;;
8819;SDS011;4446;50.876;4.736;2023-06-14T01:54:35;7.80;;;5.22;;
8819;SDS011;4446;50.876;4.736;2023-06-14T01:57:07;6.28;;;5.53;;
8819;SDS011;4446;50.876;4.736;2023-06-14T01:59:37;6.22;;;5.45;;
8819;SDS011;4446;50.876;4.736;2023-06-14T02:02:04;5.95;;;5.35;;
8819;SDS011;4446;50.876;4.736;2023-06-14T02:04:31;5.60;;;5.10;;
8819;SDS011;4446;50.876;4.736;2023-06-14T02:06:58;6.15;;;5.55;;
8819;SDS011;4446;50.876;4.736;2023-06-14T02:09:25;7.18;;;5.38;;
8819;SDS011;4446;50.876;4.736;2023-06-14T02:11:52;5.80;;;5.15;;
8819;SDS011;4446;50.876;4.736;2023-06-14T02:14:19;5.80;;;5.20;;
8819;SDS011;4446;50.876;4.736;2023-06-14T02:16:47;5.88;;;5.25;;
8819;SDS011;4446;50.876;4.736;2023-06-14T02:19:15;7.22;;;5.60;;
8819;SDS011;4446;50.876;4.736;2023-06-14T02:21:42;6.47;;;4.85;;
8819;SDS011;4446;50.876;4.736;2023-06-14T02:24:09;10.00;;;5.90;;
8819;SDS011;4446;50.876;4.736;2023-06-14T02:26:36;6.97;;;5.10;;
8819;SDS011;4446;50.876;4.736;2023-06-14T02:29:04;6.22;;;5.55;;
8819;SDS011;4446;50.876;4.736;2023-06-14T02:31:33;5.97;;;5.38;;
8819;SDS011;4446;50.876;4.736;2023-06-14T02:34:03;6.32;;;5.20;;
8819;SDS011;4446;50.876;4.736;2023-06-14T02:36:30;7.57;;;5.35;;
8819;SDS011;4446;50.876;4.736;2023-06-14T02:38:57;7.03;;;5.55;;
8819;SDS011;4446;50.876;4.736;2023-06-14T02:41:24;6.45;;;5.30;;
8819;SDS011;4446;50.876;4.736;2023-06-14T02:43:51;7.65;;;5.97;;
8819;SDS011;4446;50.876;4.736;2023-06-14T02:46:18;7.05;;;5.32;;
8819;SDS011;4446;50.876;4.736;2023-06-14T02:48:45;6.70;;;5.53;;
8819;SDS011;4446;50.876;4.736;2023-06-14T02:51:13;6.28;;;5.60;;
8819;SDS011;4446;50.876;4.736;2023-06-14T02:53:40;5.90;;;5.25;;
8819;SDS011;4446;50.876;4.736;2023-06-14T02:56:07;6.78;;;6.07;;
8819;SDS011;4446;50.876;4.736;2023-06-14T02:58:34;7.28;;;5.05;;
8819;SDS011;4446;50.876;4.736;2023-06-14T03:01:02;6.88;;;5.88;;
8819;SDS011;4446;50.876;4.736;2023-06-14T03:03:30;7.72;;;5.93;;
8819;SDS011;4446;50.876;4.736;2023-06-14T03:05:58;8.30;;;6.38;;
8819;SDS011;4446;50.876;4.736;2023-06-14T03:08:31;6.40;;;5.72;;
8819;SDS011;4446;50.876;4.736;2023-06-14T03:11:03;6.72;;;5.97;;
8819;SDS011;4446;50.876;4.736;2023-06-14T03:13:31;7.20;;;5.82;;
8819;SDS011;4446;50.876;4.736;2023-06-14T03:15:58;8.23;;;6.30;;
8819;SDS011;4446;50.876;4.736;2023-06-14T03:18:27;8.00;;;6.28;;
8819;SDS011;4446;50.876;4.736;2023-06-14T03:20:55;6.97;;;6.10;;
8819;SDS011;4446;50.876;4.736;2023-06-14T03:23:23;6.88;;;5.70;;
8819;SDS011;4446;50.876;4.736;2023-06-14T03:25:51;6.32;;;5.72;;
8819;SDS011;4446;50.876;4.736;2023-06-14T03:28:18;7.65;;;5.65;;
8819;SDS011;4446;50.876;4.736;2023-06-14T03:30:45;6.22;;;5.32;;
8819;SDS011;4446;50.876;4.736;2023-06-14T03:33:12;7.57;;;5.88;;
8819;SDS011;4446;50.876;4.736;2023-06-14T03:35:40;7.57;;;6.20;;
8819;SDS011;4446;50.876;4.736;2023-06-14T03:38:07;6.72;;;6.03;;
8819;SDS011;4446;50.876;4.736;2023-06-14T03:40:34;6.28;;;5.20;;
8819;SDS011;4446;50.876;4.736;2023-06-14T03:43:03;6.78;;;5.82;;
8819;SDS011;4446;50.876;4.736;2023-06-14T03:45:29;7.25;;;5.43;;
8819;SDS011;4446;50.876;4.736;2023-06-14T03:47:56;9.32;;;5.93;;
8819;SDS011;4446;50.876;4.736;2023-06-14T03:50:25;10.30;;;6.55;;
8819;SDS011;4446;50.876;4.736;2023-06-14T03:52:53;6.68;;;5.97;;
8819;SDS011;4446;50.876;4.736;2023-06-14T03:55:20;6.97;;;6.13;;
8819;SDS011;4446;50.876;4.736;2023-06-14T03:57:50;8.45;;;6.20;;
8819;SDS011;4446;50.876;4.736;2023-06-14T04:00:18;6.30;;;5.70;;
8819;SDS011;4446;50.876;4.736;2023-06-14T04:02:46;6.65;;;5.72;;
8819;SDS011;4446;50.876;4.736;2023-06-14T04:05:12;6.80;;;5.85;;
8819;SDS011;4446;50.876;4.736;2023-06-14T04:07:41;7.38;;;5.97;;
8819;SDS011;4446;50.876;4.736;2023-06-14T04:10:10;6.65;;;5.95;;
8819;SDS011;4446;50.876;4.736;2023-06-14T04:12:37;8.43;;;5.82;;
8819;SDS011;4446;50.876;4.736;2023-06-14T04:15:05;7.53;;;5.70;;
8819;SDS011;4446;50.876;4.736;2023-06-14T04:17:34;6.93;;;5.82;;
8819;SDS011;4446;50.876;4.736;2023-06-14T04:20:03;6.70;;;5.97;;
8819;SDS011;4446;50.876;4.736;2023-06-14T04:22:34;7.50;;;5.40;;
8819;SDS011;4446;50.876;4.736;2023-06-14T04:25:01;9.02;;;6.63;;
8819;SDS011;4446;50.876;4.736;2023-06-14T04:27:31;7.35;;;5.93;;
8819;SDS011;4446;50.876;4.736;2023-06-14T04:30:01;6.90;;;5.78;;
8819;SDS011;4446;50.876;4.736;2023-06-14T04:32:28;6.70;;;5.60;;
8819;SDS011;4446;50.876;4.736;2023-06-14T04:35:00;8.98;;;5.75;;
8819;SDS011;4446;50.876;4.736;2023-06-14T04:37:28;7.30;;;6.25;;
8819;SDS011;4446;50.876;4.736;2023-06-14T04:39:55;6.88;;;6.15;;
8819;SDS011;4446;50.876;4.736;2023-06-14T04:42:22;6.68;;;5.97;;
8819;SDS011;4446;50.876;4.736;2023-06-14T04:44:56;10.23;;;6.50;;
8819;SDS011;4446;50.876;4.736;2023-06-14T04:47:24;10.18;;;6.15;;
8819;SDS011;4446;50.876;4.736;2023-06-14T04:49:55;7.75;;;6.28;;
8819;SDS011;4446;50.876;4.736;2023-06-14T04:52:24;7.50;;;5.82;;
8819;SDS011;4446;50.876;4.736;2023-06-14T04:54:51;6.70;;;6.00;;
8819;SDS011;4446;50.876;4.736;2023-06-14T04:57:19;6.80;;;5.85;;
8819;SDS011;4446;50.876;4.736;2023-06-14T04:59:47;9.57;;;6.53;;
8819;SDS011;4446;50.876;4.736;2023-06-14T05:02:21;8.98;;;6.20;;
8819;SDS011;4446;50.876;4.736;2023-06-14T05:04:52;8.85;;;6.53;;
8819;SDS011;4446;50.876;4.736;2023-06-14T05:07:22;6.90;;;6.22;;
8819;SDS011;4446;50.876;4.736;2023-06-14T05:09:50;7.10;;;6.10;;
8819;SDS011;4446;50.876;4.736;2023-06-14T05:12:17;8.25;;;6.65;;
8819;SDS011;4446;50.876;4.736;2023-06-14T05:14:45;7.95;;;6.65;;
8819;SDS011;4446;50.876;4.736;2023-06-14T05:17:12;7.78;;;6.38;;
8819;SDS011;4446;50.876;4.736;2023-06-14T05:19:39;7.47;;;6.05;;
8819;SDS011;4446;50.876;4.736;2023-06-14T05:22:06;7.70;;;6.93;;
8819;SDS011;4446;50.876;4.736;2023-06-14T05:24:33;10.30;;;7.05;;
8819;SDS011;4446;50.876;4.736;2023-06-14T05:27:01;9.50;;;6.38;;
8819;SDS011;4446;50.876;4.736;2023-06-14T05:29:28;7.82;;;6.10;;
8819;SDS011;4446;50.876;4.736;2023-06-14T05:31:56;8.50;;;6.60;;
8819;SDS011;4446;50.876;4.736;2023-06-14T05:34:23;7.10;;;6.18;;
8819;SDS011;4446;50.876;4.736;2023-06-14T05:36:50;6.47;;;5.75;;
8819;SDS011;4446;50.876;4.736;2023-06-14T05:39:17;7.82;;;6.55;;
8819;SDS011;4446;50.876;4.736;2023-06-14T05:41:44;6.85;;;6.13;;
8819;SDS011;4446;50.876;4.736;2023-06-14T05:44:12;7.68;;;6.55;;
8819;SDS011;4446;50.876;4.736;2023-06-14T05:46:39;7.18;;;5.85;;
8819;SDS011;4446;50.876;4.736;2023-06-14T05:49:06;7.13;;;5.88;;
8819;SDS011;4446;50.876;4.736;2023-06-14T05:51:33;8.55;;;6.85;;
8819;SDS011;4446;50.876;4.736;2023-06-14T05:54:01;11.15;;;7.25;;
8819;SDS011;4446;50.876;4.736;2023-06-14T05:56:28;10.75;;;6.47;;
8819;SDS011;4446;50.876;4.736;2023-06-14T05:58:55;7.90;;;6.00;;
8819;SDS011;4446;50.876;4.736;2023-06-14T06:01:23;9.05;;;6.18;;
8819;SDS011;4446;50.876;4.736;2023-06-14T06:03:50;7.80;;;6.03;;
8819;SDS011;4446;50.876;4.736;2023-06-14T06:06:17;8.57;;;6.43;;
8819;SDS011;4446;50.876;4.736;2023-06-14T06:08:44;6.93;;;5.70;;
8819;SDS011;4446;50.876;4.736;2023-06-14T06:11:11;7.88;;;6.03;;
8819;SDS011;4446;50.876;4.736;2023-06-14T06:13:38;7.35;;;5.97;;
8819;SDS011;4446;50.876;4.736;2023-06-14T06:16:05;6.35;;;5.68;;
8819;SDS011;4446;50.876;4.736;2023-06-14T06:18:34;9.25;;;6.75;;
8819;SDS011;4446;50.876;4.736;2023-06-14T06:21:01;7.38;;;5.88;;
8819;SDS011;4446;50.876;4.736;2023-06-14T06:23:29;7.93;;;6.43;;
8819;SDS011;4446;50.876;4.736;2023-06-14T06:25:56;7.82;;;5.95;;
8819;SDS011;4446;50.876;4.736;2023-06-14T06:28:23;9.05;;;6.25;;
8819;SDS011;4446;50.876;4.736;2023-06-14T06:30:50;8.00;;;6.40;;
8819;SDS011;4446;50.876;4.736;2023-06-14T06:33:18;7.53;;;5.55;;
8819;SDS011;4446;50.876;4.736;2023-06-14T06:35:47;8.07;;;6.15;;
8819;SDS011;4446;50.876;4.736;2023-06-14T06:38:14;8.30;;;6.20;;
8819;SDS011;4446;50.876;4.736;2023-06-14T06:40:40;6.40;;;5.80;;
8819;SDS011;4446;50.876;4.736;2023-06-14T06:43:07;7.30;;;6.25;;
8819;SDS011;4446;50.876;4.736;2023-06-14T06:45:34;6.80;;;6.10;;
8819;SDS011;4446;50.876;4.736;2023-06-14T06:48:01;8.73;;;6.68;;
8819;SDS011;4446;50.876;4.736;2023-06-14T06:50:28;7.53;;;6.45;;
8819;SDS011;4446;50.876;4.736;2023-06-14T06:52:57;8.15;;;6.28;;
8819;SDS011;4446;50.876;4.736;2023-06-14T06:55:24;7.05;;;5.85;;
8819;SDS011;4446;50.876;4.736;2023-06-14T06:57:51;6.63;;;5.85;;
8819;SDS011;4446;50.876;4.736;2023-06-14T07:00:19;9.90;;;6.13;;
8819;SDS011;4446;50.876;4.736;2023-06-14T07:02:46;9.75;;;6.25;;
8819;SDS011;4446;50.876;4.736;2023-06-14T07:05:13;8.23;;;6.32;;
8819;SDS011;4446;50.876;4.736;2023-06-14T07:07:40;8.82;;;6.00;;
8819;SDS011;4446;50.876;4.736;2023-06-14T07:10:08;7.45;;;5.47;;
8819;SDS011;4446;50.876;4.736;2023-06-14T07:12:35;7.15;;;6.28;;
8819;SDS011;4446;50.876;4.736;2023-06-14T07:15:05;6.93;;;5.68;;
8819;SDS011;4446;50.876;4.736;2023-06-14T07:17:33;6.95;;;5.57;;
8819;SDS011;4446;50.876;4.736;2023-06-14T07:20:01;6.55;;;5.88;;
8819;SDS011;4446;50.876;4.736;2023-06-14T07:22:37;7.00;;;5.57;;
8819;SDS011;4446;50.876;4.736;2023-06-14T07:25:06;7.60;;;5.45;;
8819;SDS011;4446;50.876;4.736;2023-06-14T07:27:35;7.18;;;5.90;;
8819;SDS011;4446;50.876;4.736;2023-06-14T07:30:02;6.45;;;5.53;;
8819;SDS011;4446;50.876;4.736;2023-06-14T07:32:29;6.40;;;5.57;;
8819;SDS011;4446;50.876;4.736;2023-06-14T07:34:56;7.70;;;6.20;;
8819;SDS011;4446;50.876;4.736;2023-06-14T07:37:23;6.25;;;5.45;;
8819;SDS011;4446;50.876;4.736;2023-06-14T07:39:50;8.02;;;5.53;;
8819;SDS011;4446;50.876;4.736;2023-06-14T07:42:17;8.77;;;6.00;;
8819;SDS011;4446;50.876;4.736;2023-06-14T07:44:45;9.13;;;6.05;;
8819;SDS011;4446;50.876;4.736;2023-06-14T07:47:12;6.93;;;6.20;;
8819;SDS011;4446;50.876;4.736;2023-06-14T07:49:39;7.72;;;6.30;;
8819;SDS011;4446;50.876;4.736;2023-06-14T07:52:07;6.13;;;5.53;;
8819;SDS011;4446;50.876;4.736;2023-06-14T07:54:34;9.07;;;6.28;;
8819;SDS011;4446;50.876;4.736;2023-06-14T07:57:01;6.35;;;5.75;;
8819;SDS011;4446;50.876;4.736;2023-06-14T07:59:28;5.93;;;5.30;;
8819;SDS011;4446;50.876;4.736;2023-06-14T08:01:56;7.93;;;6.00;;
8819;SDS011;4446;50.876;4.736;2023-06-14T08:04:23;6.47;;;5.88;;
8819;SDS011;4446;50.876;4.736;2023-06-14T08:06:50;7.22;;;5.82;;
8819;SDS011;4446;50.876;4.736;2023-06-14T08:09:17;7.45;;;6.13;;
8819;SDS011;4446;50.876;4.736;2023-06-14T08:11:45;6.68;;;5.57;;
8819;SDS011;4446;50.876;4.736;2023-06-14T08:14:12;6.75;;;5.88;;
8819;SDS011;4446;50.876;4.736;2023-06-14T08:16:39;7.00;;;5.50;;
8819;SDS011;4446;50.876;4.736;2023-06-14T08:19:08;7.75;;;5.63;;
8819;SDS011;4446;50.876;4.736;2023-06-14T08:21:34;7.70;;;5.93;;
8819;SDS011;4446;50.876;4.736;2023-06-14T08:24:02;6.65;;;6.00;;
8819;SDS011;4446;50.876;4.736;2023-06-14T08:26:29;7.00;;;5.88;;
8819;SDS011;4446;50.876;4.736;2023-06-14T08:28:57;10.05;;;5.93;;
8819;SDS011;4446;50.876;4.736;2023-06-14T08:31:24;8.65;;;6.72;;
8819;SDS011;4446;50.876;4.736;2023-06-14T08:33:52;6.55;;;5.78;;
8819;SDS011;4446;50.876;4.736;2023-06-14T08:36:21;7.05;;;5.93;;
8819;SDS011;4446;50.876;4.736;2023-06-14T08:38:48;7.18;;;6.28;;
8819;SDS011;4446;50.876;4.736;2023-06-14T08:41:19;8.15;;;6.07;;
8819;SDS011;4446;50.876;4.736;2023-06-14T08:43:48;9.90;;;6.00;;
8819;SDS011;4446;50.876;4.736;2023-06-14T08:46:17;6.72;;;5.72;;
8819;SDS011;4446;50.876;4.736;2023-06-14T08:48:46;7.18;;;5.95;;
8819;SDS011;4446;50.876;4.736;2023-06-14T08:51:15;5.88;;;5.30;;
8819;SDS011;4446;50.876;4.736;2023-06-14T08:53:49;7.05;;;5.90;;
8819;SDS011;4446;50.876;4.736;2023-06-14T08:56:22;5.72;;;5.22;;
8819;SDS011;4446;50.876;4.736;2023-06-14T08:58:51;7.32;;;6.22;;
8819;SDS011;4446;50.876;4.736;2023-06-14T09:01:18;5.90;;;5.30;;
8819;SDS011;4446;50.876;4.736;2023-06-14T09:03:47;5.97;;;5.38;;
8819;SDS011;4446;50.876;4.736;2023-06-14T09:06:15;7.15;;;5.18;;
8819;SDS011;4446;50.876;4.736;2023-06-14T09:08:44;7.43;;;5.72;;
8819;SDS011;4446;50.876;4.736;2023-06-14T09:11:14;6.15;;;5.57;;
8819;SDS011;4446;50.876;4.736;2023-06-14T09:13:44;7.57;;;5.95;;
8819;SDS011;4446;50.876;4.736;2023-06-14T09:16:11;6.95;;;5.38;;
8819;SDS011;4446;50.876;4.736;2023-06-14T09:18:39;6.10;;;5.50;;
8819;SDS011;4446;50.876;4.736;2023-06-14T09:21:08;7.53;;;5.43;;
8819;SDS011;4446;50.876;4.736;2023-06-14T09:23:36;6.20;;;5.25;;
8819;SDS011;4446;50.876;4.736;2023-06-14T09:26:07;6.68;;;4.95;;
8819;SDS011;4446;50.876;4.736;2023-06-14T09:28:37;5.65;;;5.07;;
8819;SDS011;4446;50.876;4.736;2023-06-14T09:31:08;6.18;;;5.25;;
8819;SDS011;4446;50.876;4.736;2023-06-14T09:33:36;7.45;;;5.10;;
8819;SDS011;4446;50.876;4.736;2023-06-14T09:36:03;6.07;;;5.32;;
8819;SDS011;4446;50.876;4.736;2023-06-14T09:38:31;6.10;;;5.15;;
8819;SDS011;4446;50.876;4.736;2023-06-14T09:41:00;5.63;;;5.13;;
8819;SDS011;4446;50.876;4.736;2023-06-14T09:43:30;5.25;;;4.80;;
8819;SDS011;4446;50.876;4.736;2023-06-14T09:46:01;5.95;;;5.00;;
8819;SDS011;4446;50.876;4.736;2023-06-14T09:48:28;5.53;;;4.90;;
8819;SDS011;4446;50.876;4.736;2023-06-14T09:50:55;5.13;;;4.63;;
8819;SDS011;4446;50.876;4.736;2023-06-14T09:53:24;5.72;;;4.90;;
8819;SDS011;4446;50.876;4.736;2023-06-14T09:55:54;5.38;;;4.80;;
8819;SDS011;4446;50.876;4.736;2023-06-14T09:58:23;8.00;;;4.60;;
8819;SDS011;4446;50.876;4.736;2023-06-14T10:00:54;7.07;;;4.53;;
8819;SDS011;4446;50.876;4.736;2023-06-14T10:03:25;4.95;;;4.45;;
8819;SDS011;4446;50.876;4.736;2023-06-14T10:05:55;4.90;;;4.40;;
8819;SDS011;4446;50.876;4.736;2023-06-14T10:08:27;5.05;;;4.55;;
8819;SDS011;4446;50.876;4.736;2023-06-14T10:10:58;4.63;;;4.18;;
8819;SDS011;4446;50.876;4.736;2023-06-14T10:13:25;4.60;;;4.15;;
8819;SDS011;4446;50.876;4.736;2023-06-14T10:15:57;5.82;;;4.68;;
8819;SDS011;4446;50.876;4.736;2023-06-14T10:18:33;5.13;;;4.18;;
8819;SDS011;4446;50.876;4.736;2023-06-14T10:21:08;21.70;;;4.53;;
8819;SDS011;4446;50.876;4.736;2023-06-14T10:23:42;4.68;;;4.18;;
8819;SDS011;4446;50.876;4.736;2023-06-14T10:26:17;5.68;;;4.63;;
8819;SDS011;4446;50.876;4.736;2023-06-14T10:28:55;6.10;;;4.30;;
8819;SDS011;4446;50.876;4.736;2023-06-14T10:31:39;6.57;;;4.53;;
8819;SDS011;4446;50.876;4.736;2023-06-14T10:34:08;4.75;;;4.20;;
8819;SDS011;4446;50.876;4.736;2023-06-14T10:36:36;4.55;;;4.10;;
8819;SDS011;4446;50.876;4.736;2023-06-14T10:39:06;7.57;;;4.20;;
8819;SDS011;4446;50.876;4.736;2023-06-14T10:41:34;5.45;;;4.00;;
8819;SDS011;4446;50.876;4.736;2023-06-14T10:47:06;7.63;;;3.83;;
8819;SDS011;4446;50.876;4.736;2023-06-14T10:49:40;4.85;;;3.78;;
8819;SDS011;4446;50.876;4.736;2023-06-14T10:52:09;5.22;;;3.90;;
8819;SDS011;4446;50.876;4.736;2023-06-14T10:54:59;3.83;;;3.47;;
8819;SDS011;4446;50.876;4.736;2023-06-14T10:57:31;6.47;;;4.00;;
8819;SDS011;4446;50.876;4.736;2023-06-14T10:59:58;4.43;;;3.67;;
8819;SDS011;4446;50.876;4.736;2023-06-14T11:02:45;3.75;;;3.45;;
8819;SDS011;4446;50.876;4.736;2023-06-14T11:05:23;4.82;;;3.72;;
8819;SDS011;4446;50.876;4.736;2023-06-14T11:07:58;5.25;;;3.90;;
8819;SDS011;4446;50.876;4.736;2023-06-14T11:10:40;3.97;;;3.63;;
8819;SDS011;4446;50.876;4.736;2023-06-14T11:13:07;4.88;;;3.60;;
8819;SDS011;4446;50.876;4.736;2023-06-14T11:15:35;6.43;;;3.53;;
8819;SDS011;4446;50.876;4.736;2023-06-14T11:18:03;4.03;;;3.58;;
8819;SDS011;4446;50.876;4.736;2023-06-14T11:20:33;7.72;;;3.97;;
8819;SDS011;4446;50.876;4.736;2023-06-14T11:23:01;4.35;;;3.95;;
8819;SDS011;4446;50.876;4.736;2023-06-14T11:25:29;4.18;;;3.78;;
8819;SDS011;4446;50.876;4.736;2023-06-14T11:27:56;3.60;;;3.30;;
8819;SDS011;4446;50.876;4.736;2023-06-14T11:30:24;4.00;;;3.63;;
8819;SDS011;4446;50.876;4.736;2023-06-14T11:32:51;3.53;;;3.22;;
8819;SDS011;4446;50.876;4.736;2023-06-14T11:35:21;5.03;;;3.67;;
8819;SDS011;4446;50.876;4.736;2023-06-14T11:37:50;4.28;;;3.83;;
8819;SDS011;4446;50.876;4.736;2023-06-14T11:40:20;4.63;;;3.95;;
8819;SDS011;4446;50.876;4.736;2023-06-14T11:42:51;4.20;;;3.67;;
8819;SDS011;4446;50.876;4.736;2023-06-14T11:45:25;4.30;;;3.90;;
8819;SDS011;4446;50.876;4.736;2023-06-14T11:47:53;4.25;;;3.75;;
8819;SDS011;4446;50.876;4.736;2023-06-14T11:50:22;4.20;;;3.80;;
8819;SDS011;4446;50.876;4.736;2023-06-14T11:52:54;4.35;;;3.60;;
8819;SDS011;4446;50.876;4.736;2023-06-14T11:55:22;4.13;;;3.72;;
8819;SDS011;4446;50.876;4.736;2023-06-14T11:57:50;4.35;;;3.95;;
8819;SDS011;4446;50.876;4.736;2023-06-14T12:00:17;4.88;;;3.45;;
8819;SDS011;4446;50.876;4.736;2023-06-14T12:02:52;4.20;;;3.63;;
8819;SDS011;4446;50.876;4.736;2023-06-14T12:05:20;3.95;;;3.42;;
8819;SDS011;4446;50.876;4.736;2023-06-14T12:07:48;3.63;;;3.33;;
8819;SDS011;4446;50.876;4.736;2023-06-14T12:10:16;3.90;;;3.50;;
8819;SDS011;4446;50.876;4.736;2023-06-14T12:12:43;3.83;;;3.53;;
8819;SDS011;4446;50.876;4.736;2023-06-14T12:15:11;6.15;;;3.78;;
8819;SDS011;4446;50.876;4.736;2023-06-14T12:17:38;4.38;;;3.72;;
8819;SDS011;4446;50.876;4.736;2023-06-14T12:20:08;3.45;;;3.15;;
8819;SDS011;4446;50.876;4.736;2023-06-14T12:22:38;4.05;;;3.25;;
8819;SDS011;4446;50.876;4.736;2023-06-14T12:25:06;3.35;;;3.05;;
8819;SDS011;4446;50.876;4.736;2023-06-14T12:27:39;3.08;;;2.80;;
8819;SDS011;4446;50.876;4.736;2023-06-14T12:30:07;3.88;;;3.08;;
8819;SDS011;4446;50.876;4.736;2023-06-14T12:32:35;5.05;;;3.30;;
8819;SDS011;4446;50.876;4.736;2023-06-14T12:35:02;6.10;;;3.20;;
8819;SDS011;4446;50.876;4.736;2023-06-14T12:37:30;3.50;;;3.20;;
8819;SDS011;4446;50.876;4.736;2023-06-14T12:39:57;4.22;;;2.85;;
8819;SDS011;4446;50.876;4.736;2023-06-14T12:42:25;4.38;;;3.08;;
8819;SDS011;4446;50.876;4.736;2023-06-14T12:44:53;3.40;;;3.10;;
8819;SDS011;4446;50.876;4.736;2023-06-14T12:47:20;3.33;;;3.00;;
8819;SDS011;4446;50.876;4.736;2023-06-14T12:49:47;4.38;;;3.40;;
8819;SDS011;4446;50.876;4.736;2023-06-14T12:52:14;3.45;;;2.70;;
8819;SDS011;4446;50.876;4.736;2023-06-14T12:54:41;3.10;;;2.63;;
8819;SDS011;4446;50.876;4.736;2023-06-14T12:57:08;2.95;;;2.67;;
8819;SDS011;4446;50.876;4.736;2023-06-14T12:59:35;3.78;;;2.85;;
8819;SDS011;4446;50.876;4.736;2023-06-14T13:02:14;6.30;;;2.67;;
8819;SDS011;4446;50.876;4.736;2023-06-14T13:04:42;4.53;;;2.65;;
8819;SDS011;4446;50.876;4.736;2023-06-14T13:07:10;2.63;;;2.42;;
8819;SDS011;4446;50.876;4.736;2023-06-14T13:09:37;3.35;;;2.53;;
8819;SDS011;4446;50.876;4.736;2023-06-14T13:12:04;3.03;;;2.40;;
8819;SDS011;4446;50.876;4.736;2023-06-14T13:14:31;6.18;;;2.58;;
8819;SDS011;4446;50.876;4.736;2023-06-14T13:16:59;2.83;;;2.03;;
8819;SDS011;4446;50.876;4.736;2023-06-14T13:19:27;2.20;;;2.00;;
8819;SDS011;4446;50.876;4.736;2023-06-14T13:21:55;3.67;;;2.08;;
8819;SDS011;4446;50.876;4.736;2023-06-14T13:24:22;2.33;;;1.90;;
8819;SDS011;4446;50.876;4.736;2023-06-14T13:26:49;3.55;;;2.00;;
8819;SDS011;4446;50.876;4.736;2023-06-14T13:29:16;2.40;;;2.00;;
8819;SDS011;4446;50.876;4.736;2023-06-14T13:31:43;3.80;;;2.10;;
8819;SDS011;4446;50.876;4.736;2023-06-14T13:34:10;2.20;;;2.00;;
8819;SDS011;4446;50.876;4.736;2023-06-14T13:36:39;3.08;;;2.03;;
8819;SDS011;4446;50.876;4.736;2023-06-14T13:39:06;3.42;;;2.25;;
8819;SDS011;4446;50.876;4.736;2023-06-14T13:41:33;2.78;;;2.15;;
8819;SDS011;4446;50.876;4.736;2023-06-14T13:44:00;4.10;;;2.17;;
8819;SDS011;4446;50.876;4.736;2023-06-14T13:46:29;2.55;;;2.10;;
8819;SDS011;4446;50.876;4.736;2023-06-14T13:48:56;2.25;;;2.00;;
8819;SDS011;4446;50.876;4.736;2023-06-14T13:51:23;2.40;;;2.20;;
8819;SDS011;4446;50.876;4.736;2023-06-14T13:53:53;2.55;;;2.22;;
8819;SDS011;4446;50.876;4.736;2023-06-14T13:56:20;1.95;;;1.83;;
8819;SDS011;4446;50.876;4.736;2023-06-14T13:58:49;2.40;;;2.20;;
8819;SDS011;4446;50.876;4.736;2023-06-14T14:01:17;2.33;;;2.13;;
8819;SDS011;4446;50.876;4.736;2023-06-14T14:03:44;2.97;;;1.92;;
8819;SDS011;4446;50.876;4.736;2023-06-14T14:06:12;1.92;;;1.83;;
8819;SDS011;4446;50.876;4.736;2023-06-14T14:08:39;2.42;;;2.20;;
8819;SDS011;4446;50.876;4.736;2023-06-14T14:11:08;2.38;;;2.17;;
8819;SDS011;4446;50.876;4.736;2023-06-14T14:13:35;2.83;;;2.40;;
8819;SDS011;4446;50.876;4.736;2023-06-14T14:16:03;2.33;;;2.13;;
8819;SDS011;4446;50.876;4.736;2023-06-14T14:18:31;3.22;;;1.90;;
8819;SDS011;4446;50.876;4.736;2023-06-14T14:20:58;2.90;;;2.33;;
8819;SDS011;4446;50.876;4.736;2023-06-14T14:23:27;2.60;;;2.35;;
8819;SDS011;4446;50.876;4.736;2023-06-14T14:25:54;3.10;;;1.85;;
8819;SDS011;4446;50.876;4.736;2023-06-14T14:28:23;2.38;;;2.17;;
8819;SDS011;4446;50.876;4.736;2023-06-14T14:30:50;3.40;;;2.13;;
8819;SDS011;4446;50.876;4.736;2023-06-14T14:33:18;2.17;;;1.98;;
8819;SDS011;4446;50.876;4.736;2023-06-14T14:35:45;2.75;;;2.20;;
8819;SDS011;4446;50.876;4.736;2023-06-14T14:38:13;3.55;;;2.30;;
8819;SDS011;4446;50.876;4.736;2023-06-14T14:40:40;2.10;;;2.00;;
8819;SDS011;4446;50.876;4.736;2023-06-14T14:43:07;2.20;;;2.10;;
8819;SDS011;4446;50.876;4.736;2023-06-14T14:45:36;2.60;;;2.40;;
8819;SDS011;4446;50.876;4.736;2023-06-14T14:48:03;4.28;;;3.25;;
8819;SDS011;4446;50.876;4.736;2023-06-14T14:50:32;2.42;;;2.22;;
8819;SDS011;4446;50.876;4.736;2023-06-14T14:52:59;2.88;;;2.22;;
8819;SDS011;4446;50.876;4.736;2023-06-14T14:55:26;2.70;;;2.50;;
8819;SDS011;4446;50.876;4.736;2023-06-14T14:57:53;2.38;;;2.17;;
8819;SDS011;4446;50.876;4.736;2023-06-14T15:00:20;2.63;;;2.30;;
8819;SDS011;4446;50.876;4.736;2023-06-14T15:02:49;2.70;;;2.50;;
8819;SDS011;4446;50.876;4.736;2023-06-14T15:05:16;2.47;;;2.28;;
8819;SDS011;4446;50.876;4.736;2023-06-14T15:07:43;4.30;;;2.45;;
8819;SDS011;4446;50.876;4.736;2023-06-14T15:10:11;2.75;;;2.55;;
8819;SDS011;4446;50.876;4.736;2023-06-14T15:12:38;5.22;;;2.20;;
8819;SDS011;4446;50.876;4.736;2023-06-14T15:15:05;2.55;;;2.35;;
8819;SDS011;4446;50.876;4.736;2023-06-14T15:17:34;2.78;;;2.58;;
8819;SDS011;4446;50.876;4.736;2023-06-14T15:20:03;2.60;;;2.40;;
8819;SDS011;4446;50.876;4.736;2023-06-14T15:22:32;4.18;;;2.17;;
8819;SDS011;4446;50.876;4.736;2023-06-14T15:24:58;2.55;;;2.35;;